sensor_id;sensor_type;location;lat;lon;timestamp;P1;durP1;ratioP1;P2;durP2;ratioP2
51179;SDS011;37243;49.814;8.652;2022-09-24T00:01:55;1.80;;;1.70;;
51179;SDS011;37243;49.814;8.652;2022-09-24T00:04:23;1.90;;;1.80;;
51179;SDS011;37243;49.814;8.652;2022-09-24T00:06:56;1.52;;;1.42;;
51179;SDS011;37243;49.814;8.652;2022-09-24T00:09:24;1.55;;;1.45;;
51179;SDS011;37243;49.814;8.652;2022-09-24T00:11:52;1.45;;;1.40;;
51179;SDS011;37243;49.814;8.652;2022-09-24T00:14:20;2.72;;;1.77;;
51179;SDS011;37243;49.814;8.652;2022-09-24T00:16:49;1.70;;;1.60;;
51179;SDS011;37243;49.814;8.652;2022-09-24T00:19:17;1.75;;;1.65;;
51179;SDS011;37243;49.814;8.652;2022-09-24T00:21:45;1.77;;;1.63;;
51179;SDS011;37243;49.814;8.652;2022-09-24T00:24:16;1.27;;;1.27;;
51179;SDS011;37243;49.814;8.652;2022-09-24T00:26:57;1.70;;;1.60;;
51179;SDS011;37243;49.814;8.652;2022-09-24T00:29:27;1.60;;;1.60;;
51179;SDS011;37243;49.814;8.652;2022-09-24T00:31:58;1.75;;;1.65;;
51179;SDS011;37243;49.814;8.652;2022-09-24T00:34:26;1.60;;;1.50;;
51179;SDS011;37243;49.814;8.652;2022-09-24T00:36:55;1.60;;;1.50;;
51179;SDS011;37243;49.814;8.652;2022-09-24T00:39:26;1.65;;;1.60;;
51179;SDS011;37243;49.814;8.652;2022-09-24T00:41:54;1.80;;;1.70;;
51179;SDS011;37243;49.814;8.652;2022-09-24T00:44:44;1.55;;;1.48;;
51179;SDS011;37243;49.814;8.652;2022-09-24T00:47:22;1.52;;;1.52;;
51179;SDS011;37243;49.814;8.652;2022-09-24T00:49:57;1.73;;;1.63;;
51179;SDS011;37243;49.814;8.652;2022-09-24T00:52:33;1.60;;;1.50;;
51179;SDS011;37243;49.814;8.652;2022-09-24T00:55:08;1.58;;;1.50;;
51179;SDS011;37243;49.814;8.652;2022-09-24T00:57:37;1.50;;;1.50;;
51179;SDS011;37243;49.814;8.652;2022-09-24T01:00:13;1.98;;;1.88;;
51179;SDS011;37243;49.814;8.652;2022-09-24T01:02:42;1.48;;;1.48;;
51179;SDS011;37243;49.814;8.652;2022-09-24T01:05:13;1.65;;;1.55;;
51179;SDS011;37243;49.814;8.652;2022-09-24T01:07:41;1.70;;;1.60;;
51179;SDS011;37243;49.814;8.652;2022-09-24T01:10:14;1.60;;;1.60;;
51179;SDS011;37243;49.814;8.652;2022-09-24T01:13:02;2.65;;;1.67;;
51179;SDS011;37243;49.814;8.652;2022-09-24T01:15:40;1.58;;;1.58;;
51179;SDS011;37243;49.814;8.652;2022-09-24T01:18:15;1.85;;;1.75;;
51179;SDS011;37243;49.814;8.652;2022-09-24T01:20:53;1.80;;;1.70;;
51179;SDS011;37243;49.814;8.652;2022-09-24T01:23:41;1.80;;;1.70;;
51179;SDS011;37243;49.814;8.652;2022-09-24T01:26:32;1.70;;;1.60;;
51179;SDS011;37243;49.814;8.652;2022-09-24T01:32:06;1.70;;;1.60;;
51179;SDS011;37243;49.814;8.652;2022-09-24T01:34:42;1.80;;;1.70;;
51179;SDS011;37243;49.814;8.652;2022-09-24T01:37:15;1.63;;;1.52;;
51179;SDS011;37243;49.814;8.652;2022-09-24T01:39:46;1.50;;;1.40;;
51179;SDS011;37243;49.814;8.652;2022-09-24T01:42:16;1.80;;;1.70;;
51179;SDS011;37243;49.814;8.652;2022-09-24T01:44:48;1.30;;;1.30;;
51179;SDS011;37243;49.814;8.652;2022-09-24T01:47:19;1.85;;;1.75;;
51179;SDS011;37243;49.814;8.652;2022-09-24T01:49:54;1.90;;;1.80;;
51179;SDS011;37243;49.814;8.652;2022-09-24T01:52:23;1.60;;;1.50;;
51179;SDS011;37243;49.814;8.652;2022-09-24T01:54:59;1.65;;;1.55;;
51179;SDS011;37243;49.814;8.652;2022-09-24T01:57:32;1.95;;;1.77;;
51179;SDS011;37243;49.814;8.652;2022-09-24T02:00:09;1.25;;;1.23;;
51179;SDS011;37243;49.814;8.652;2022-09-24T02:02:42;1.77;;;1.67;;
51179;SDS011;37243;49.814;8.652;2022-09-24T02:05:13;1.45;;;1.35;;
51179;SDS011;37243;49.814;8.652;2022-09-24T02:07:50;2.10;;;1.80;;
51179;SDS011;37243;49.814;8.652;2022-09-24T02:10:24;1.33;;;1.33;;
51179;SDS011;37243;49.814;8.652;2022-09-24T02:12:57;1.45;;;1.45;;
51179;SDS011;37243;49.814;8.652;2022-09-24T02:15:31;1.38;;;1.38;;
51179;SDS011;37243;49.814;8.652;2022-09-24T02:18:02;1.55;;;1.55;;
51179;SDS011;37243;49.814;8.652;2022-09-24T02:20:35;1.50;;;1.40;;
51179;SDS011;37243;49.814;8.652;2022-09-24T02:23:07;1.67;;;1.58;;
51179;SDS011;37243;49.814;8.652;2022-09-24T02:25:40;1.60;;;1.50;;
51179;SDS011;37243;49.814;8.652;2022-09-24T02:28:13;2.03;;;1.77;;
51179;SDS011;37243;49.814;8.652;2022-09-24T02:30:45;1.60;;;1.55;;
51179;SDS011;37243;49.814;8.652;2022-09-24T02:33:18;1.25;;;1.25;;
51179;SDS011;37243;49.814;8.652;2022-09-24T02:36:00;1.40;;;1.40;;
51179;SDS011;37243;49.814;8.652;2022-09-24T02:38:29;1.88;;;1.77;;
51179;SDS011;37243;49.814;8.652;2022-09-24T02:40:58;1.77;;;1.67;;
51179;SDS011;37243;49.814;8.652;2022-09-24T02:43:26;1.80;;;1.70;;
51179;SDS011;37243;49.814;8.652;2022-09-24T02:45:57;2.25;;;1.58;;
51179;SDS011;37243;49.814;8.652;2022-09-24T02:48:25;2.78;;;1.67;;
51179;SDS011;37243;49.814;8.652;2022-09-24T02:50:53;1.77;;;1.67;;
51179;SDS011;37243;49.814;8.652;2022-09-24T02:53:22;1.73;;;1.63;;
51179;SDS011;37243;49.814;8.652;2022-09-24T02:55:50;1.48;;;1.38;;
51179;SDS011;37243;49.814;8.652;2022-09-24T02:58:18;1.50;;;1.40;;
51179;SDS011;37243;49.814;8.652;2022-09-24T03:00:47;1.80;;;1.70;;
51179;SDS011;37243;49.814;8.652;2022-09-24T03:03:17;1.45;;;1.45;;
51179;SDS011;37243;49.814;8.652;2022-09-24T03:05:46;1.48;;;1.40;;
51179;SDS011;37243;49.814;8.652;2022-09-24T03:08:17;1.45;;;1.40;;
51179;SDS011;37243;49.814;8.652;2022-09-24T03:10:45;1.50;;;1.50;;
51179;SDS011;37243;49.814;8.652;2022-09-24T03:13:15;1.63;;;1.52;;
51179;SDS011;37243;49.814;8.652;2022-09-24T03:15:43;1.73;;;1.63;;
51179;SDS011;37243;49.814;8.652;2022-09-24T03:18:12;1.75;;;1.65;;
51179;SDS011;37243;49.814;8.652;2022-09-24T03:20:52;1.42;;;1.42;;
51179;SDS011;37243;49.814;8.652;2022-09-24T03:23:21;1.45;;;1.42;;
51179;SDS011;37243;49.814;8.652;2022-09-24T03:25:49;1.27;;;1.25;;
51179;SDS011;37243;49.814;8.652;2022-09-24T03:28:18;1.70;;;1.60;;
51179;SDS011;37243;49.814;8.652;2022-09-24T03:30:46;1.40;;;1.40;;
51179;SDS011;37243;49.814;8.652;2022-09-24T03:33:27;1.50;;;1.50;;
51179;SDS011;37243;49.814;8.652;2022-09-24T03:36:00;1.70;;;1.60;;
51179;SDS011;37243;49.814;8.652;2022-09-24T03:38:30;1.60;;;1.50;;
51179;SDS011;37243;49.814;8.652;2022-09-24T03:41:00;1.48;;;1.45;;
51179;SDS011;37243;49.814;8.652;2022-09-24T03:43:28;1.50;;;1.50;;
51179;SDS011;37243;49.814;8.652;2022-09-24T03:45:57;1.65;;;1.55;;
51179;SDS011;37243;49.814;8.652;2022-09-24T03:48:26;1.50;;;1.50;;
51179;SDS011;37243;49.814;8.652;2022-09-24T03:50:55;1.60;;;1.50;;
51179;SDS011;37243;49.814;8.652;2022-09-24T03:53:26;1.50;;;1.50;;
51179;SDS011;37243;49.814;8.652;2022-09-24T03:55:54;1.40;;;1.40;;
51179;SDS011;37243;49.814;8.652;2022-09-24T03:58:24;1.50;;;1.40;;
51179;SDS011;37243;49.814;8.652;2022-09-24T04:00:53;1.30;;;1.30;;
51179;SDS011;37243;49.814;8.652;2022-09-24T04:03:22;1.50;;;1.40;;
51179;SDS011;37243;49.814;8.652;2022-09-24T04:05:51;1.65;;;1.55;;
51179;SDS011;37243;49.814;8.652;2022-09-24T04:08:20;1.55;;;1.45;;
51179;SDS011;37243;49.814;8.652;2022-09-24T04:10:52;1.58;;;1.48;;
51179;SDS011;37243;49.814;8.652;2022-09-24T04:13:22;1.35;;;1.30;;
51179;SDS011;37243;49.814;8.652;2022-09-24T04:15:50;1.23;;;1.23;;
51179;SDS011;37243;49.814;8.652;2022-09-24T04:18:19;1.63;;;1.52;;
51179;SDS011;37243;49.814;8.652;2022-09-24T04:20:47;1.30;;;1.30;;
51179;SDS011;37243;49.814;8.652;2022-09-24T04:23:16;1.20;;;1.20;;
51179;SDS011;37243;49.814;8.652;2022-09-24T04:25:44;1.60;;;1.55;;
51179;SDS011;37243;49.814;8.652;2022-09-24T04:28:15;1.80;;;1.70;;
51179;SDS011;37243;49.814;8.652;2022-09-24T04:30:43;1.75;;;1.65;;
51179;SDS011;37243;49.814;8.652;2022-09-24T04:33:11;1.70;;;1.60;;
51179;SDS011;37243;49.814;8.652;2022-09-24T04:35:41;1.40;;;1.40;;
51179;SDS011;37243;49.814;8.652;2022-09-24T04:38:09;1.30;;;1.30;;
51179;SDS011;37243;49.814;8.652;2022-09-24T04:40:37;1.52;;;1.52;;
51179;SDS011;37243;49.814;8.652;2022-09-24T04:43:06;1.55;;;1.45;;
51179;SDS011;37243;49.814;8.652;2022-09-24T04:45:37;1.60;;;1.60;;
51179;SDS011;37243;49.814;8.652;2022-09-24T04:48:10;1.50;;;1.50;;
51179;SDS011;37243;49.814;8.652;2022-09-24T04:50:38;1.30;;;1.30;;
51179;SDS011;37243;49.814;8.652;2022-09-24T04:53:07;1.35;;;1.35;;
51179;SDS011;37243;49.814;8.652;2022-09-24T04:55:36;1.40;;;1.40;;
51179;SDS011;37243;49.814;8.652;2022-09-24T04:58:05;1.35;;;1.35;;
51179;SDS011;37243;49.814;8.652;2022-09-24T05:00:37;1.50;;;1.40;;
51179;SDS011;37243;49.814;8.652;2022-09-24T05:03:07;1.40;;;1.38;;
51179;SDS011;37243;49.814;8.652;2022-09-24T05:05:35;2.78;;;1.63;;
51179;SDS011;37243;49.814;8.652;2022-09-24T05:08:04;1.65;;;1.55;;
51179;SDS011;37243;49.814;8.652;2022-09-24T05:10:32;1.40;;;1.40;;
51179;SDS011;37243;49.814;8.652;2022-09-24T05:13:00;1.45;;;1.20;;
51179;SDS011;37243;49.814;8.652;2022-09-24T05:15:28;1.42;;;1.42;;
51179;SDS011;37243;49.814;8.652;2022-09-24T05:17:59;1.45;;;1.45;;
51179;SDS011;37243;49.814;8.652;2022-09-24T05:20:28;1.15;;;1.15;;
51179;SDS011;37243;49.814;8.652;2022-09-24T05:22:56;1.30;;;1.20;;
51179;SDS011;37243;49.814;8.652;2022-09-24T05:25:24;1.15;;;1.15;;
51179;SDS011;37243;49.814;8.652;2022-09-24T05:27:53;1.42;;;1.40;;
51179;SDS011;37243;49.814;8.652;2022-09-24T05:30:20;1.30;;;1.30;;
51179;SDS011;37243;49.814;8.652;2022-09-24T05:32:49;1.23;;;1.15;;
51179;SDS011;37243;49.814;8.652;2022-09-24T05:35:21;1.35;;;1.35;;
51179;SDS011;37243;49.814;8.652;2022-09-24T05:37:50;1.38;;;1.38;;
51179;SDS011;37243;49.814;8.652;2022-09-24T05:40:20;1.52;;;1.52;;
51179;SDS011;37243;49.814;8.652;2022-09-24T05:43:01;1.50;;;1.40;;
51179;SDS011;37243;49.814;8.652;2022-09-24T05:45:30;1.40;;;1.30;;
51179;SDS011;37243;49.814;8.652;2022-09-24T05:47:59;1.20;;;1.20;;
51179;SDS011;37243;49.814;8.652;2022-09-24T05:50:30;1.88;;;1.20;;
51179;SDS011;37243;49.814;8.652;2022-09-24T05:52:59;1.38;;;1.38;;
51179;SDS011;37243;49.814;8.652;2022-09-24T05:55:27;1.50;;;1.40;;
51179;SDS011;37243;49.814;8.652;2022-09-24T05:58:00;1.40;;;1.40;;
51179;SDS011;37243;49.814;8.652;2022-09-24T06:00:30;1.38;;;1.38;;
51179;SDS011;37243;49.814;8.652;2022-09-24T06:03:03;1.60;;;1.50;;
51179;SDS011;37243;49.814;8.652;2022-09-24T06:05:34;1.40;;;1.40;;
51179;SDS011;37243;49.814;8.652;2022-09-24T06:08:03;1.30;;;1.23;;
51179;SDS011;37243;49.814;8.652;2022-09-24T06:10:32;1.38;;;1.38;;
51179;SDS011;37243;49.814;8.652;2022-09-24T06:13:01;1.60;;;1.50;;
51179;SDS011;37243;49.814;8.652;2022-09-24T06:15:29;1.30;;;1.25;;
51179;SDS011;37243;49.814;8.652;2022-09-24T06:17:59;1.40;;;1.30;;
51179;SDS011;37243;49.814;8.652;2022-09-24T06:20:27;1.30;;;1.20;;
51179;SDS011;37243;49.814;8.652;2022-09-24T06:22:58;1.38;;;1.38;;
51179;SDS011;37243;49.814;8.652;2022-09-24T06:25:26;1.77;;;1.67;;
51179;SDS011;37243;49.814;8.652;2022-09-24T06:27:56;1.40;;;1.30;;
51179;SDS011;37243;49.814;8.652;2022-09-24T06:30:25;1.55;;;1.45;;
51179;SDS011;37243;49.814;8.652;2022-09-24T06:32:54;3.00;;;1.55;;
51179;SDS011;37243;49.814;8.652;2022-09-24T06:35:29;1.58;;;1.48;;
51179;SDS011;37243;49.814;8.652;2022-09-24T06:38:00;1.35;;;1.25;;
51179;SDS011;37243;49.814;8.652;2022-09-24T06:40:28;1.33;;;1.33;;
51179;SDS011;37243;49.814;8.652;2022-09-24T06:42:56;1.40;;;1.40;;
51179;SDS011;37243;49.814;8.652;2022-09-24T06:45:25;2.88;;;1.50;;
51179;SDS011;37243;49.814;8.652;2022-09-24T06:47:54;1.58;;;1.48;;
51179;SDS011;37243;49.814;8.652;2022-09-24T06:50:24;3.28;;;1.42;;
51179;SDS011;37243;49.814;8.652;2022-09-24T06:52:54;2.00;;;1.80;;
51179;SDS011;37243;49.814;8.652;2022-09-24T06:55:25;1.77;;;1.65;;
51179;SDS011;37243;49.814;8.652;2022-09-24T06:58:00;3.40;;;1.70;;
51179;SDS011;37243;49.814;8.652;2022-09-24T07:00:29;1.88;;;1.52;;
51179;SDS011;37243;49.814;8.652;2022-09-24T07:02:58;1.95;;;1.55;;
51179;SDS011;37243;49.814;8.652;2022-09-24T07:05:26;5.15;;;1.63;;
51179;SDS011;37243;49.814;8.652;2022-09-24T07:07:55;4.45;;;1.70;;
51179;SDS011;37243;49.814;8.652;2022-09-24T07:10:25;1.70;;;1.60;;
51179;SDS011;37243;49.814;8.652;2022-09-24T07:12:55;1.60;;;1.50;;
51179;SDS011;37243;49.814;8.652;2022-09-24T07:15:23;2.70;;;1.65;;
51179;SDS011;37243;49.814;8.652;2022-09-24T07:17:53;2.70;;;2.00;;
51179;SDS011;37243;49.814;8.652;2022-09-24T07:20:22;1.80;;;1.63;;
51179;SDS011;37243;49.814;8.652;2022-09-24T07:22:54;2.92;;;1.67;;
51179;SDS011;37243;49.814;8.652;2022-09-24T07:25:22;3.35;;;1.80;;
51179;SDS011;37243;49.814;8.652;2022-09-24T07:27:53;1.90;;;1.75;;
51179;SDS011;37243;49.814;8.652;2022-09-24T07:30:21;3.03;;;1.42;;
51179;SDS011;37243;49.814;8.652;2022-09-24T07:32:53;3.05;;;1.60;;
51179;SDS011;37243;49.814;8.652;2022-09-24T07:35:22;2.72;;;1.60;;
51179;SDS011;37243;49.814;8.652;2022-09-24T07:37:57;2.80;;;1.60;;
51179;SDS011;37243;49.814;8.652;2022-09-24T07:40:26;2.83;;;1.77;;
51179;SDS011;37243;49.814;8.652;2022-09-24T07:42:57;1.67;;;1.58;;
51179;SDS011;37243;49.814;8.652;2022-09-24T07:45:26;2.63;;;1.67;;
51179;SDS011;37243;49.814;8.652;2022-09-24T07:47:56;1.95;;;1.73;;
51179;SDS011;37243;49.814;8.652;2022-09-24T07:50:26;2.88;;;1.80;;
51179;SDS011;37243;49.814;8.652;2022-09-24T07:52:55;2.60;;;1.90;;
51179;SDS011;37243;49.814;8.652;2022-09-24T07:55:24;1.95;;;1.75;;
51179;SDS011;37243;49.814;8.652;2022-09-24T07:57:53;1.80;;;1.70;;
51179;SDS011;37243;49.814;8.652;2022-09-24T08:00:24;2.60;;;2.17;;
51179;SDS011;37243;49.814;8.652;2022-09-24T08:02:53;3.72;;;2.25;;
51179;SDS011;37243;49.814;8.652;2022-09-24T08:05:21;2.10;;;1.90;;
51179;SDS011;37243;49.814;8.652;2022-09-24T08:07:49;3.17;;;2.00;;
51179;SDS011;37243;49.814;8.652;2022-09-24T08:10:19;2.63;;;2.10;;
51179;SDS011;37243;49.814;8.652;2022-09-24T08:12:47;2.33;;;1.73;;
51179;SDS011;37243;49.814;8.652;2022-09-24T08:15:16;2.53;;;2.30;;
51179;SDS011;37243;49.814;8.652;2022-09-24T08:17:49;2.20;;;2.00;;
51179;SDS011;37243;49.814;8.652;2022-09-24T08:20:17;2.72;;;1.88;;
51179;SDS011;37243;49.814;8.652;2022-09-24T08:22:47;1.90;;;1.80;;
51179;SDS011;37243;49.814;8.652;2022-09-24T08:25:15;2.47;;;1.83;;
51179;SDS011;37243;49.814;8.652;2022-09-24T08:27:44;2.35;;;1.70;;
51179;SDS011;37243;49.814;8.652;2022-09-24T08:30:12;2.22;;;2.13;;
51179;SDS011;37243;49.814;8.652;2022-09-24T08:32:44;2.00;;;1.73;;
51179;SDS011;37243;49.814;8.652;2022-09-24T08:35:16;1.85;;;1.75;;
51179;SDS011;37243;49.814;8.652;2022-09-24T08:37:44;2.10;;;1.90;;
51179;SDS011;37243;49.814;8.652;2022-09-24T08:40:13;2.00;;;1.90;;
51179;SDS011;37243;49.814;8.652;2022-09-24T08:42:47;1.77;;;1.67;;
51179;SDS011;37243;49.814;8.652;2022-09-24T08:45:22;2.25;;;2.03;;
51179;SDS011;37243;49.814;8.652;2022-09-24T08:48:04;2.00;;;1.90;;
51179;SDS011;37243;49.814;8.652;2022-09-24T08:50:43;2.60;;;2.17;;
51179;SDS011;37243;49.814;8.652;2022-09-24T08:53:25;2.22;;;1.70;;
51179;SDS011;37243;49.814;8.652;2022-09-24T08:55:58;2.58;;;2.10;;
51179;SDS011;37243;49.814;8.652;2022-09-24T08:58:31;2.38;;;1.90;;
51179;SDS011;37243;49.814;8.652;2022-09-24T09:01:06;2.20;;;1.98;;
51179;SDS011;37243;49.814;8.652;2022-09-24T09:03:44;2.53;;;2.30;;
51179;SDS011;37243;49.814;8.652;2022-09-24T09:06:22;3.00;;;1.90;;
51179;SDS011;37243;49.814;8.652;2022-09-24T09:09:08;4.25;;;2.35;;
51179;SDS011;37243;49.814;8.652;2022-09-24T09:11:39;2.40;;;1.95;;
51179;SDS011;37243;49.814;8.652;2022-09-24T09:14:13;1.83;;;1.70;;
51179;SDS011;37243;49.814;8.652;2022-09-24T09:16:46;3.88;;;2.13;;
51179;SDS011;37243;49.814;8.652;2022-09-24T09:19:19;3.97;;;2.10;;
51179;SDS011;37243;49.814;8.652;2022-09-24T09:21:56;2.13;;;1.90;;
51179;SDS011;37243;49.814;8.652;2022-09-24T09:24:31;3.00;;;2.00;;
51179;SDS011;37243;49.814;8.652;2022-09-24T09:27:08;2.10;;;2.00;;
51179;SDS011;37243;49.814;8.652;2022-09-24T09:29:39;2.53;;;1.70;;
51179;SDS011;37243;49.814;8.652;2022-09-24T09:32:11;2.05;;;1.85;;
51179;SDS011;37243;49.814;8.652;2022-09-24T09:34:55;2.08;;;1.88;;
51179;SDS011;37243;49.814;8.652;2022-09-24T09:37:35;2.33;;;2.13;;
51179;SDS011;37243;49.814;8.652;2022-09-24T09:40:16;2.72;;;2.03;;
51179;SDS011;37243;49.814;8.652;2022-09-24T09:42:59;4.07;;;2.00;;
51179;SDS011;37243;49.814;8.652;2022-09-24T09:45:30;3.55;;;2.17;;
51179;SDS011;37243;49.814;8.652;2022-09-24T09:48:03;2.25;;;2.03;;
51179;SDS011;37243;49.814;8.652;2022-09-24T09:50:38;2.25;;;2.08;;
51179;SDS011;37243;49.814;8.652;2022-09-24T09:53:23;2.95;;;2.25;;
51179;SDS011;37243;49.814;8.652;2022-09-24T09:55:54;5.40;;;1.90;;
51179;SDS011;37243;49.814;8.652;2022-09-24T09:58:24;5.40;;;2.40;;
51179;SDS011;37243;49.814;8.652;2022-09-24T10:01:02;3.10;;;2.35;;
51179;SDS011;37243;49.814;8.652;2022-09-24T10:03:45;2.60;;;2.38;;
51179;SDS011;37243;49.814;8.652;2022-09-24T10:06:22;3.20;;;2.25;;
51179;SDS011;37243;49.814;8.652;2022-09-24T10:09:04;4.13;;;1.80;;
51179;SDS011;37243;49.814;8.652;2022-09-24T10:11:34;2.38;;;1.75;;
51179;SDS011;37243;49.814;8.652;2022-09-24T10:14:03;3.15;;;2.00;;
51179;SDS011;37243;49.814;8.652;2022-09-24T10:16:34;3.63;;;2.20;;
51179;SDS011;37243;49.814;8.652;2022-09-24T10:19:10;5.50;;;2.65;;
51179;SDS011;37243;49.814;8.652;2022-09-24T10:21:42;3.50;;;2.20;;
51179;SDS011;37243;49.814;8.652;2022-09-24T10:24:14;4.57;;;2.60;;
51179;SDS011;37243;49.814;8.652;2022-09-24T10:26:46;2.63;;;2.30;;
51179;SDS011;37243;49.814;8.652;2022-09-24T10:29:16;3.45;;;2.25;;
51179;SDS011;37243;49.814;8.652;2022-09-24T10:31:59;3.35;;;2.20;;
51179;SDS011;37243;49.814;8.652;2022-09-24T10:34:29;2.10;;;1.90;;
51179;SDS011;37243;49.814;8.652;2022-09-24T10:36:58;1.95;;;1.83;;
51179;SDS011;37243;49.814;8.652;2022-09-24T10:39:30;2.88;;;2.25;;
51179;SDS011;37243;49.814;8.652;2022-09-24T10:41:58;4.20;;;2.20;;
51179;SDS011;37243;49.814;8.652;2022-09-24T10:44:28;4.95;;;2.25;;
51179;SDS011;37243;49.814;8.652;2022-09-24T10:47:05;7.78;;;2.20;;
51179;SDS011;37243;49.814;8.652;2022-09-24T10:49:47;3.20;;;2.10;;
51179;SDS011;37243;49.814;8.652;2022-09-24T10:52:37;2.88;;;2.00;;
51179;SDS011;37243;49.814;8.652;2022-09-24T10:55:16;4.70;;;2.40;;
51179;SDS011;37243;49.814;8.652;2022-09-24T10:57:57;4.47;;;2.30;;
51179;SDS011;37243;49.814;8.652;2022-09-24T11:00:31;4.15;;;2.22;;
51179;SDS011;37243;49.814;8.652;2022-09-24T11:03:16;4.22;;;2.05;;
51179;SDS011;37243;49.814;8.652;2022-09-24T11:06:11;6.00;;;2.60;;
51179;SDS011;37243;49.814;8.652;2022-09-24T11:09:02;8.07;;;2.63;;
51179;SDS011;37243;49.814;8.652;2022-09-24T11:11:45;3.00;;;2.13;;
51179;SDS011;37243;49.814;8.652;2022-09-24T11:14:32;5.38;;;2.00;;
51179;SDS011;37243;49.814;8.652;2022-09-24T11:17:16;3.42;;;2.33;;
51179;SDS011;37243;49.814;8.652;2022-09-24T11:20:06;5.07;;;2.47;;
51179;SDS011;37243;49.814;8.652;2022-09-24T11:23:01;5.30;;;2.67;;
51179;SDS011;37243;49.814;8.652;2022-09-24T11:25:56;3.55;;;2.63;;
51179;SDS011;37243;49.814;8.652;2022-09-24T11:28:38;4.90;;;2.85;;
51179;SDS011;37243;49.814;8.652;2022-09-24T11:31:32;3.65;;;2.33;;
51179;SDS011;37243;49.814;8.652;2022-09-24T11:34:18;2.65;;;2.20;;
51179;SDS011;37243;49.814;8.652;2022-09-24T11:36:59;2.60;;;2.40;;
51179;SDS011;37243;49.814;8.652;2022-09-24T11:39:47;3.03;;;2.63;;
51179;SDS011;37243;49.814;8.652;2022-09-24T11:42:27;2.97;;;2.30;;
51179;SDS011;37243;49.814;8.652;2022-09-24T11:45:09;3.75;;;2.75;;
51179;SDS011;37243;49.814;8.652;2022-09-24T11:48:04;2.30;;;2.10;;
51179;SDS011;37243;49.814;8.652;2022-09-24T11:50:53;3.67;;;2.35;;
51179;SDS011;37243;49.814;8.652;2022-09-24T11:53:33;4.47;;;2.63;;
51179;SDS011;37243;49.814;8.652;2022-09-24T11:56:09;3.60;;;2.55;;
51179;SDS011;37243;49.814;8.652;2022-09-24T11:58:45;2.58;;;2.38;;
51179;SDS011;37243;49.814;8.652;2022-09-24T12:01:23;5.95;;;2.83;;
51179;SDS011;37243;49.814;8.652;2022-09-24T12:03:57;3.20;;;2.78;;
51179;SDS011;37243;49.814;8.652;2022-09-24T12:06:30;3.30;;;3.00;;
51179;SDS011;37243;49.814;8.652;2022-09-24T12:09:06;2.95;;;2.63;;
51179;SDS011;37243;49.814;8.652;2022-09-24T12:11:42;2.85;;;2.60;;
51179;SDS011;37243;49.814;8.652;2022-09-24T12:14:16;3.33;;;2.30;;
51179;SDS011;37243;49.814;8.652;2022-09-24T12:16:51;4.63;;;2.83;;
51179;SDS011;37243;49.814;8.652;2022-09-24T12:19:24;4.15;;;2.40;;
51179;SDS011;37243;49.814;8.652;2022-09-24T12:21:55;3.72;;;2.50;;
51179;SDS011;37243;49.814;8.652;2022-09-24T12:24:25;2.67;;;2.42;;
51179;SDS011;37243;49.814;8.652;2022-09-24T12:26:57;4.82;;;2.88;;
51179;SDS011;37243;49.814;8.652;2022-09-24T12:29:31;3.47;;;2.53;;
51179;SDS011;37243;49.814;8.652;2022-09-24T12:32:19;3.72;;;2.70;;
51179;SDS011;37243;49.814;8.652;2022-09-24T12:35:09;2.85;;;2.58;;
51179;SDS011;37243;49.814;8.652;2022-09-24T12:37:47;4.03;;;2.60;;
51179;SDS011;37243;49.814;8.652;2022-09-24T12:40:30;3.45;;;2.80;;
51179;SDS011;37243;49.814;8.652;2022-09-24T12:43:15;4.13;;;2.70;;
51179;SDS011;37243;49.814;8.652;2022-09-24T12:45:52;3.22;;;2.70;;
51179;SDS011;37243;49.814;8.652;2022-09-24T12:48:26;2.97;;;2.40;;
51179;SDS011;37243;49.814;8.652;2022-09-24T12:50:56;3.67;;;2.83;;
51179;SDS011;37243;49.814;8.652;2022-09-24T12:53:28;4.22;;;2.45;;
51179;SDS011;37243;49.814;8.652;2022-09-24T12:56:01;3.20;;;2.50;;
51179;SDS011;37243;49.814;8.652;2022-09-24T12:58:35;3.33;;;2.60;;
51179;SDS011;37243;49.814;8.652;2022-09-24T13:01:12;2.97;;;2.78;;
51179;SDS011;37243;49.814;8.652;2022-09-24T13:04:03;3.65;;;2.70;;
51179;SDS011;37243;49.814;8.652;2022-09-24T13:06:48;2.70;;;2.50;;
51179;SDS011;37243;49.814;8.652;2022-09-24T13:09:23;2.88;;;2.45;;
51179;SDS011;37243;49.814;8.652;2022-09-24T13:12:00;4.40;;;2.70;;
51179;SDS011;37243;49.814;8.652;2022-09-24T13:14:31;4.28;;;2.33;;
51179;SDS011;37243;49.814;8.652;2022-09-24T13:17:03;3.47;;;2.50;;
51179;SDS011;37243;49.814;8.652;2022-09-24T13:19:36;4.10;;;2.50;;
51179;SDS011;37243;49.814;8.652;2022-09-24T13:22:17;3.80;;;2.85;;
51179;SDS011;37243;49.814;8.652;2022-09-24T13:24:49;6.97;;;2.90;;
51179;SDS011;37243;49.814;8.652;2022-09-24T13:27:20;4.65;;;2.72;;
51179;SDS011;37243;49.814;8.652;2022-09-24T13:30:01;4.22;;;2.85;;
51179;SDS011;37243;49.814;8.652;2022-09-24T13:32:35;2.63;;;2.47;;
51179;SDS011;37243;49.814;8.652;2022-09-24T13:35:12;2.35;;;2.17;;
51179;SDS011;37243;49.814;8.652;2022-09-24T13:37:46;4.15;;;2.67;;
51179;SDS011;37243;49.814;8.652;2022-09-24T13:40:20;5.60;;;2.78;;
51179;SDS011;37243;49.814;8.652;2022-09-24T13:42:54;4.10;;;2.90;;
51179;SDS011;37243;49.814;8.652;2022-09-24T13:45:29;6.15;;;2.67;;
51179;SDS011;37243;49.814;8.652;2022-09-24T13:48:01;2.72;;;2.50;;
51179;SDS011;37243;49.814;8.652;2022-09-24T13:50:35;2.47;;;2.22;;
51179;SDS011;37243;49.814;8.652;2022-09-24T13:53:06;4.25;;;2.33;;
51179;SDS011;37243;49.814;8.652;2022-09-24T13:55:45;5.00;;;2.67;;
51179;SDS011;37243;49.814;8.652;2022-09-24T13:58:27;6.55;;;2.97;;
51179;SDS011;37243;49.814;8.652;2022-09-24T14:00:59;2.95;;;2.53;;
51179;SDS011;37243;49.814;8.652;2022-09-24T14:03:30;2.50;;;2.30;;
51179;SDS011;37243;49.814;8.652;2022-09-24T14:06:08;3.45;;;2.60;;
51179;SDS011;37243;49.814;8.652;2022-09-24T14:08:39;3.10;;;2.50;;
51179;SDS011;37243;49.814;8.652;2022-09-24T14:11:13;3.65;;;2.50;;
51179;SDS011;37243;49.814;8.652;2022-09-24T14:13:43;2.28;;;2.17;;
51179;SDS011;37243;49.814;8.652;2022-09-24T14:16:13;2.58;;;2.38;;
51179;SDS011;37243;49.814;8.652;2022-09-24T14:18:43;3.00;;;2.60;;
51179;SDS011;37243;49.814;8.652;2022-09-24T14:21:15;2.17;;;2.08;;
51179;SDS011;37243;49.814;8.652;2022-09-24T14:23:50;3.92;;;2.50;;
51179;SDS011;37243;49.814;8.652;2022-09-24T14:26:25;2.97;;;2.30;;
51179;SDS011;37243;49.814;8.652;2022-09-24T14:28:58;5.55;;;2.47;;
51179;SDS011;37243;49.814;8.652;2022-09-24T14:31:30;3.17;;;2.35;;
51179;SDS011;37243;49.814;8.652;2022-09-24T14:33:59;2.78;;;2.40;;
51179;SDS011;37243;49.814;8.652;2022-09-24T14:36:36;3.40;;;2.40;;
51179;SDS011;37243;49.814;8.652;2022-09-24T14:39:04;2.72;;;2.53;;
51179;SDS011;37243;49.814;8.652;2022-09-24T14:41:33;2.15;;;2.05;;
51179;SDS011;37243;49.814;8.652;2022-09-24T14:44:14;3.42;;;2.78;;
51179;SDS011;37243;49.814;8.652;2022-09-24T14:46:49;2.80;;;2.53;;
51179;SDS011;37243;49.814;8.652;2022-09-24T14:49:20;2.60;;;2.28;;
51179;SDS011;37243;49.814;8.652;2022-09-24T14:51:54;2.50;;;2.30;;
51179;SDS011;37243;49.814;8.652;2022-09-24T14:54:27;2.55;;;2.35;;
51179;SDS011;37243;49.814;8.652;2022-09-24T14:57:08;3.00;;;2.70;;
51179;SDS011;37243;49.814;8.652;2022-09-24T14:59:38;2.40;;;2.15;;
51179;SDS011;37243;49.814;8.652;2022-09-24T15:02:14;5.85;;;2.28;;
51179;SDS011;37243;49.814;8.652;2022-09-24T15:04:47;2.30;;;2.13;;
51179;SDS011;37243;49.814;8.652;2022-09-24T15:07:20;2.80;;;2.60;;
51179;SDS011;37243;49.814;8.652;2022-09-24T15:09:51;2.38;;;2.00;;
51179;SDS011;37243;49.814;8.652;2022-09-24T15:12:21;2.58;;;2.38;;
51179;SDS011;37243;49.814;8.652;2022-09-24T15:14:55;3.60;;;2.45;;
51179;SDS011;37243;49.814;8.652;2022-09-24T15:17:28;2.50;;;2.15;;
51179;SDS011;37243;49.814;8.652;2022-09-24T15:19:57;3.10;;;2.40;;
51179;SDS011;37243;49.814;8.652;2022-09-24T15:22:29;3.25;;;2.47;;
51179;SDS011;37243;49.814;8.652;2022-09-24T15:24:57;2.80;;;2.60;;
51179;SDS011;37243;49.814;8.652;2022-09-24T15:27:27;2.50;;;2.30;;